Time;durP1;ratioP1;P1;durP2;ratioP2;P2;SDS_P1;SDS_P2;PMS_P1;PMS_P2;Temp;Humidity;BMP_temperature;BMP_pressure;BME280_temperature;BME280_humidity;BME280_pressure;Samples;Min_cycle;Max_cycle;Signal;HPM_P1;HPM_P2
2023/10/02 00:01:52;;;;;;;15.87;7.47;;;;;;;22.44;50.32;99285.19;5018195;28;20194;-87
2023/10/02 00:04:19;;;;;;;15.27;7.77;;;;;;;22.39;50.73;99279.47;5034411;28;20590;-87
2023/10/02 00:06:46;;;;;;;16.63;7.33;;;;;;;22.39;50.92;99284.81;5016319;28;20194;-88
2023/10/02 00:09:14;;;;;;;13.77;6.90;;;;;;;22.35;50.97;99280.75;5034576;28;20591;-88
2023/10/02 00:11:41;;;;;;;15.57;7.83;;;;;;;22.29;51.22;99289.38;5016770;28;20244;-88
2023/10/02 00:14:34;;;;;;;13.20;7.60;;;;;;;22.35;51.01;99284.25;5016786;28;20178;-88
2023/10/02 00:17:08;;;;;;;11.73;6.90;;;;;;;22.22;51.31;99290.97;5032647;28;20237;-87
2023/10/02 00:19:39;;;;;;;12.90;7.23;;;;;;;22.43;50.51;99291.53;5017235;28;20563;-87
2023/10/02 00:22:09;;;;;;;13.73;7.43;;;;;;;22.46;50.39;99284.03;5009858;28;20186;-89
2023/10/02 00:24:39;;;;;;;12.93;7.33;;;;;;;22.47;50.04;99284.88;5033964;28;20594;-87
2023/10/02 00:27:11;;;;;;;15.97;6.67;;;;;;;22.51;49.90;99294.28;5132475;27;20538;-88
2023/10/02 00:29:57;;;;;;;19.50;7.57;;;;;;;22.34;50.45;99292.44;5131857;28;20190;-89
2023/10/02 00:32:29;;;;;;;14.97;7.67;;;;;;;22.23;50.72;99312.16;5131853;28;20519;-89
2023/10/02 00:34:55;;;;;;;12.53;7.23;;;;;;;22.14;50.83;99302.41;5113447;28;20163;-89
2023/10/02 00:37:21;;;;;;;14.80;7.57;;;;;;;22.11;51.13;99309.88;5113409;28;20175;-89
2023/10/02 00:39:47;;;;;;;12.90;7.23;;;;;;;22.13;51.01;99306.06;5113292;28;20674;-88
2023/10/02 00:42:24;;;;;;;15.40;6.90;;;;;;;22.09;51.29;99311.84;5131372;28;20223;-88
2023/10/02 00:45:02;;;;;;;20.13;7.13;;;;;;;22.04;51.22;99298.94;5113206;28;20254;-88
2023/10/02 00:47:38;;;;;;;13.17;7.53;;;;;;;22.01;51.40;99307.25;5131571;28;20188;-88
2023/10/02 00:50:10;;;;;;;13.13;7.23;;;;;;;22.06;51.13;99307.66;5131800;28;20163;-88
2023/10/02 00:52:42;;;;;;;14.20;6.93;;;;;;;22.09;51.05;99317.19;5131742;28;20284;-89
2023/10/02 00:55:20;;;;;;;13.07;7.03;;;;;;;22.08;51.18;99310.16;5131439;28;20232;-89
2023/10/02 00:57:52;;;;;;;13.97;7.63;;;;;;;22.01;51.10;99312.59;5131709;28;20187;-87
2023/10/02 01:00:21;;;;;;;12.67;7.20;;;;;;;22.01;51.38;99307.25;5131049;28;20175;-88
2023/10/02 01:02:57;;;;;;;12.67;7.47;;;;;;;21.92;51.85;99308.97;5112898;28;20179;-89
2023/10/02 01:05:42;;;;;;;17.93;7.13;;;;;;;21.84;51.91;99310.66;5113711;28;20205;-88
2023/10/02 01:08:42;;;;;;;15.30;7.53;;;;;;;21.87;51.94;99308.59;5112837;28;20171;-88
2023/10/02 01:11:13;;;;;;;16.20;7.33;;;;;;;21.86;51.99;99314.06;5112766;28;20179;-88
2023/10/02 01:13:42;;;;;;;13.27;7.37;;;;;;;21.93;51.97;99310.63;5131079;28;20247;-88
2023/10/02 01:16:09;;;;;;;14.00;7.47;;;;;;;21.79;52.23;99311.13;5113767;28;20191;-88
2023/10/02 01:18:39;;;;;;;14.87;7.43;;;;;;;21.78;52.46;99312.09;5113457;28;20187;-88
2023/10/02 01:21:11;;;;;;;14.53;7.50;;;;;;;21.57;53.14;99307.94;5112559;28;20168;-88
2023/10/02 01:24:10;;;;;;;13.90;8.20;;;;;;;21.51;53.69;99304.06;5113431;28;20169;-88
2023/10/02 01:26:50;;;;;;;13.87;6.83;;;;;;;21.46;53.80;99305.47;5113130;28;20279;-88
2023/10/02 01:29:17;;;;;;;14.17;7.40;;;;;;;21.52;53.60;99299.53;5130531;28;20155;-88
2023/10/02 01:31:44;;;;;;;10.90;6.73;;;;;;;21.32;54.06;99309.44;5131265;28;20609;-89
2023/10/02 01:34:33;;;;;;;16.40;7.97;;;;;;;21.43;54.20;99304.75;5112612;28;20183;-89
2023/10/02 01:36:56;;;;;;;16.83;6.83;;;;;;;21.48;53.82;99306.19;5125905;27;20245;-88
2023/10/02 01:39:23;;;;;;;13.07;7.40;;;;;;;21.35;54.29;99303.81;5116552;28;20575;-88
2023/10/02 01:41:52;;;;;;;17.03;7.73;;;;;;;21.27;54.47;99304.56;5098543;28;20176;-87
2023/10/02 01:44:20;;;;;;;15.50;7.70;;;;;;;21.34;54.33;99305.66;5116452;28;20179;-87
2023/10/02 01:46:50;;;;;;;14.30;7.00;;;;;;;21.42;54.21;99308.44;5116337;28;20199;-88
2023/10/02 01:49:29;;;;;;;16.23;7.23;;;;;;;21.45;53.81;99307.31;5116374;28;20180;-87
2023/10/02 01:52:02;;;;;;;12.73;6.97;;;;;;;21.43;53.87;99309.28;5098959;28;20636;-87
2023/10/02 01:54:29;;;;;;;14.07;7.13;;;;;;;21.40;54.23;99312.22;5116606;28;20177;-88
2023/10/02 01:56:56;;;;;;;17.03;7.90;;;;;;;21.41;54.00;99312.06;5117020;28;20176;-88
2023/10/02 01:59:24;;;;;;;12.63;7.63;;;;;;;21.44;54.05;99314.47;5098511;28;20251;-87
2023/10/02 02:01:57;;;;;;;14.00;7.87;;;;;;;21.27;54.27;99315.22;5116411;28;20175;-88
2023/10/02 02:04:32;;;;;;;17.10;7.90;;;;;;;21.31;54.16;99319.25;5098185;28;20590;-90
2023/10/02 02:07:00;;;;;;;12.50;7.50;;;;;;;21.39;53.94;99313.22;5098356;28;20202;-88
2023/10/02 02:09:33;;;;;;;12.87;7.83;;;;;;;21.50;53.52;99317.53;5098308;28;20263;-88
2023/10/02 02:12:12;;;;;;;13.57;7.13;;;;;;;21.61;53.28;99320.03;5116218;28;20670;-88
2023/10/02 02:14:51;;;;;;;15.77;7.97;;;;;;;21.71;52.81;99318.16;5116216;28;20182;-88
2023/10/02 02:17:26;;;;;;;12.77;7.43;;;;;;;21.68;52.61;99315.78;5116184;28;20293;-88
2023/10/02 02:19:56;;;;;;;12.50;6.40;;;;;;;21.68;52.88;99315.78;5115800;28;20258;-88
2023/10/02 02:22:26;;;;;;;14.10;6.57;;;;;;;21.69;52.43;99315.66;5116347;28;20160;-88
2023/10/02 02:24:59;;;;;;;12.30;6.40;;;;;;;21.75;52.56;99322.22;5097592;28;20176;-88
2023/10/02 02:27:27;;;;;;;12.40;7.07;;;;;;;21.67;52.84;99317.59;5115925;28;20228;-88
2023/10/02 02:29:57;;;;;;;15.33;6.77;;;;;;;21.64;52.68;99317.91;5115841;28;20251;-88
2023/10/02 02:32:44;;;;;;;13.20;7.43;;;;;;;21.67;52.78;99325.59;5116448;28;20168;-88
2023/10/02 02:35:13;;;;;;;14.97;7.73;;;;;;;21.76;52.48;99331.91;5115572;28;20159;-89
2023/10/02 02:37:41;;;;;;;12.77;7.40;;;;;;;21.80;52.34;99325.31;5115735;28;20176;-89
2023/10/02 02:40:25;;;;;;;15.07;7.73;;;;;;;21.89;52.02;99329.78;5116121;28;20509;-88
2023/10/02 02:42:52;;;;;;;15.50;8.53;;;;;;;22.06;51.63;99322.81;5097438;28;20168;-88
2023/10/02 02:45:28;;;;;;;14.20;7.43;;;;;;;22.13;50.90;99324.75;5115766;28;20204;-88
2023/10/02 02:47:57;;;;;;;17.57;7.70;;;;;;;22.13;51.16;99324.75;5097264;28;20183;-88
2023/10/02 02:50:33;;;;;;;14.90;7.73;;;;;;;22.15;51.25;99335.25;5097256;28;20202;-88
2023/10/02 02:53:17;;;;;;;13.90;8.70;;;;;;;22.14;51.11;99323.78;5097229;28;20216;-88
2023/10/02 02:56:09;;;;;;;15.70;8.07;;;;;;;22.21;51.07;99337.34;5115401;28;20152;-88
2023/10/02 02:58:38;;;;;;;13.93;7.90;;;;;;;22.10;51.64;99334.88;5115637;28;20581;-88
2023/10/02 03:01:06;;;;;;;13.90;7.30;;;;;;;22.03;51.62;99337.31;5097349;28;20175;-89
2023/10/02 03:03:36;;;;;;;12.37;7.20;;;;;;;22.02;51.77;99351.63;5114944;28;20179;-88
2023/10/02 03:06:13;;;;;;;13.83;7.10;;;;;;;22.08;51.25;99340.38;5115171;28;20188;-88
2023/10/02 03:08:41;;;;;;;12.33;7.30;;;;;;;22.08;51.43;99339.53;5114847;28;20172;-88
2023/10/02 03:11:07;;;;;;;13.83;7.83;;;;;;;22.01;51.86;99341.97;5096770;28;20176;-88
2023/10/02 03:13:39;;;;;;;16.47;8.07;;;;;;;21.95;51.94;99337.19;5114758;28;20223;-88
2023/10/02 03:16:12;;;;;;;16.77;9.00;;;;;;;21.97;52.00;99348.56;5115268;28;20292;-88
2023/10/02 03:18:43;;;;;;;12.97;7.63;;;;;;;21.92;51.94;99340.16;5096645;28;20257;-88
2023/10/02 03:21:23;;;;;;;15.40;7.43;;;;;;;21.79;52.73;99347.63;5096646;28;20175;-88
2023/10/02 03:23:54;;;;;;;14.23;8.37;;;;;;;21.86;52.26;99351.41;5114818;28;20216;-88
2023/10/02 03:26:56;;;;;;;13.60;7.30;;;;;;;21.67;52.91;99338.13;5115311;28;20235;-88
2023/10/02 03:29:21;;;;;;;15.93;7.27;;;;;;;21.72;53.11;99351.88;5110560;28;20607;-88
2023/10/02 03:31:51;;;;;;;15.30;7.57;;;;;;;21.63;53.56;99350.06;5096549;28;20210;-88
2023/10/02 03:34:29;;;;;;;14.87;8.80;;;;;;;21.59;53.46;99359.34;5096383;28;20172;-89
2023/10/02 03:39:53;;;;;;;15.40;8.37;;;;;;;21.54;53.66;99358.94;5114864;28;20160;-88
2023/10/02 03:42:22;;;;;;;15.60;8.17;;;;;;;21.56;53.72;99356.97;5096345;28;20163;-88
2023/10/02 03:44:54;;;;;;;16.90;8.67;;;;;;;21.47;53.97;99357.81;5096180;28;20207;-88
2023/10/02 03:47:20;;;;;;;16.60;8.70;;;;;;;21.35;54.18;99362.50;5114747;28;20167;-88
2023/10/02 03:49:47;;;;;;;18.00;9.17;;;;;;;21.40;54.25;99361.09;5114054;28;20172;-89
2023/10/02 03:52:16;;;;;;;15.23;8.60;;;;;;;21.39;54.08;99369.22;5114031;28;20182;-88
2023/10/02 03:54:43;;;;;;;14.93;7.60;;;;;;;21.32;54.52;99363.63;5113999;28;20584;-88
2023/10/02 03:57:11;;;;;;;15.17;8.57;;;;;;;21.26;54.85;99369.50;5113975;28;20179;-88
2023/10/02 03:59:52;;;;;;;23.47;8.30;;;;;;;21.08;55.63;99376.53;5096614;28;20171;-88
2023/10/02 04:02:26;;;;;;;17.23;8.73;;;;;;;20.96;55.81;99371.47;5096848;28;20259;-88
2023/10/02 04:04:52;;;;;;;16.57;8.90;;;;;;;20.92;56.43;99375.38;5095902;28;20224;-88
2023/10/02 04:07:17;;;;;;;16.57;8.63;;;;;;;20.96;56.22;99375.00;5113809;28;20172;-88
2023/10/02 04:09:50;;;;;;;17.67;9.33;;;;;;;20.88;56.47;99374.84;5096123;28;20175;-88
2023/10/02 04:12:17;;;;;;;13.70;7.60;;;;;;;20.97;56.31;99375.81;5095860;28;20218;-87
2023/10/02 04:14:44;;;;;;;14.00;8.30;;;;;;;21.09;55.74;99377.41;5113388;28;20180;-88
2023/10/02 04:17:21;;;;;;;22.93;9.37;;;;;;;21.05;55.82;99375.94;5093574;28;20606;-88
2023/10/02 04:22:25;;;;;;;14.80;8.40;;;;;;;21.15;55.67;99388.31;5093039;28;20177;-88
2023/10/02 04:24:58;;;;;;;18.37;9.30;;;;;;;21.17;55.38;99389.00;5093437;28;20160;-87
2023/10/02 04:27:26;;;;;;;14.40;8.70;;;;;;;21.10;55.55;99393.25;5094159;28;20225;-88
2023/10/02 04:32:34;;;;;;;16.87;8.97;;;;;;;21.01;56.12;99394.06;5094076;28;20617;-87
2023/10/02 04:35:02;;;;;;;16.07;9.77;;;;;;;20.88;56.77;99396.16;5075417;28;20188;-88
2023/10/02 04:37:31;;;;;;;15.67;8.53;;;;;;;20.83;56.79;99399.22;5075360;28;20172;-88
2023/10/02 04:42:57;;;;;;;18.87;8.83;;;;;;;20.82;56.99;99408.22;5093488;28;20176;-88
2023/10/02 04:45:21;;;;;;;17.90;8.60;;;;;;;20.88;56.90;99416.63;5092841;28;20302;-88
2023/10/02 04:47:54;;;;;;;13.80;8.50;;;;;;;20.80;57.29;99417.31;5075664;28;20165;-87
2023/10/02 04:50:34;;;;;;;19.47;9.27;;;;;;;20.90;56.86;99417.31;5075351;28;20176;-88
2023/10/02 04:53:19;;;;;;;15.93;8.60;;;;;;;20.95;56.51;99409.75;5075260;28;20186;-88
2023/10/02 04:55:45;;;;;;;15.83;9.00;;;;;;;21.01;56.55;99406.53;5093211;28;20191;-88
2023/10/02 04:58:18;;;;;;;14.93;8.70;;;;;;;21.11;56.41;99410.94;5075497;28;20176;-88
2023/10/02 05:03:30;;;;;;;17.80;8.60;;;;;;;21.22;55.90;99416.13;5092996;28;20165;-88
2023/10/02 05:05:59;;;;;;;15.47;8.40;;;;;;;21.26;55.87;99422.00;5075317;28;20211;-88
2023/10/02 05:11:23;;;;;;;12.50;7.97;;;;;;;21.36;55.55;99423.69;5092936;28;20157;-88
2023/10/02 05:16:29;;;;;;;15.03;8.77;;;;;;;21.44;55.47;99430.97;5097541;28;20161;-88
2023/10/02 05:18:56;;;;;;;15.07;8.83;;;;;;;21.40;55.21;99437.59;5078839;28;20545;-88
2023/10/02 05:21:35;;;;;;;13.47;7.87;;;;;;;21.47;55.32;99441.34;5096559;28;20177;-88
2023/10/02 05:24:03;;;;;;;15.00;8.40;;;;;;;21.57;54.89;99436.00;5079521;28;20187;-88
2023/10/02 05:26:36;;;;;;;13.07;7.53;;;;;;;21.65;54.54;99431.63;5097475;28;20611;-88
2023/10/02 05:29:18;;;;;;;12.00;6.87;;;;;;;21.84;54.15;99438.75;5096475;28;20252;-88
2023/10/02 05:31:45;;;;;;;13.60;6.73;;;;;;;21.64;54.09;99443.31;5078499;28;20165;-89
2023/10/02 05:34:25;;;;;;;13.30;7.33;;;;;;;21.73;54.02;99449.59;5078720;28;20173;-87
2023/10/02 05:39:39;;;;;;;14.00;6.57;;;;;;;22.03;52.92;99454.78;5096837;28;20525;-89
2023/10/02 05:42:14;;;;;;;11.57;6.53;;;;;;;22.04;52.43;99456.44;5096475;28;20186;-89
2023/10/02 05:44:45;;;;;;;11.23;5.90;;;;;;;22.23;51.75;99452.84;5096426;28;20160;-89
2023/10/02 05:47:15;;;;;;;17.37;7.27;;;;;;;22.47;51.12;99454.03;5096650;28;20595;-89
2023/10/02 05:49:47;;;;;;;13.50;6.50;;;;;;;22.70;50.01;99454.50;5078486;28;20182;-89
2023/10/02 05:52:19;;;;;;;12.20;5.70;;;;;;;23.03;49.16;99455.72;5078447;28;20172;-89
2023/10/02 05:54:53;;;;;;;10.30;6.83;;;;;;;23.16;48.39;99461.53;5078465;28;20177;-87
2023/10/02 05:57:19;;;;;;;11.00;6.20;;;;;;;23.10;47.91;99462.97;5078093;28;20226;-88
2023/10/02 05:59:47;;;;;;;13.77;6.13;;;;;;;23.28;47.89;99468.31;5078822;28;20184;-88
2023/10/02 06:02:14;;;;;;;17.57;6.17;;;;;;;23.43;47.56;99458.78;5096119;28;20172;-88
2023/10/02 06:04:52;;;;;;;8.87;5.37;;;;;;;23.84;46.54;99452.78;5078988;28;20215;-90
2023/10/02 06:10:18;;;;;;;8.43;5.30;;;;;;;23.90;45.48;99466.53;5096220;28;20229;-89
2023/10/02 06:12:46;;;;;;;13.10;6.63;;;;;;;23.80;45.78;99472.81;5095902;28;20164;-89
2023/10/02 06:17:58;;;;;;;11.77;5.47;;;;;;;23.59;46.38;99483.00;5096330;28;20542;-89
2023/10/02 06:20:24;;;;;;;16.13;6.07;;;;;;;23.55;46.91;99484.31;5095738;28;20199;-89
2023/10/02 06:22:51;;;;;;;11.90;5.97;;;;;;;23.56;46.28;99498.53;5077696;28;20602;-89
2023/10/02 06:25:20;;;;;;;13.33;5.80;;;;;;;23.40;46.84;99507.25;5077316;28;20229;-89
2023/10/02 06:27:47;;;;;;;9.77;5.10;;;;;;;23.07;47.15;99506.06;5095559;28;20180;-88
2023/10/02 06:30:16;;;;;;;9.17;5.60;;;;;;;22.98;47.37;99506.94;5095279;28;20618;-89
2023/10/02 06:32:52;;;;;;;12.53;5.53;;;;;;;23.23;47.68;99508.06;5077449;28;20181;-89
2023/10/02 06:35:21;;;;;;;14.17;5.47;;;;;;;23.45;46.99;99520.19;5095170;28;20163;-89
2023/10/02 06:37:50;;;;;;;13.93;5.73;;;;;;;23.22;46.89;99519.72;5077310;28;20203;-89
2023/10/02 06:40:16;;;;;;;11.60;4.83;;;;;;;23.04;47.68;99521.53;5095310;28;20176;-88
2023/10/02 06:42:57;;;;;;;10.97;5.60;;;;;;;23.15;47.47;99524.00;5095300;28;20260;-89
2023/10/02 06:45:26;;;;;;;11.03;5.07;;;;;;;23.19;47.21;99517.38;5095168;28;20190;-89
2023/10/02 06:47:54;;;;;;;8.93;4.60;;;;;;;23.16;46.86;99523.03;5094917;28;20183;-88
2023/10/02 06:50:27;;;;;;;9.27;4.73;;;;;;;23.20;46.83;99529.75;5094916;28;20229;-89
2023/10/02 06:52:54;;;;;;;7.73;4.57;;;;;;;23.36;46.41;99531.75;5095117;28;20210;-89
2023/10/02 06:55:24;;;;;;;8.40;4.77;;;;;;;23.41;46.63;99525.00;5095053;28;20168;-89
2023/10/02 06:57:51;;;;;;;8.33;3.90;;;;;;;23.48;46.35;99526.06;5077521;28;20724;-88
2023/10/02 07:00:20;;;;;;;7.53;4.90;;;;;;;23.59;46.35;99528.50;5094698;28;20188;-88
2023/10/02 07:03:06;;;;;;;8.03;5.03;;;;;;;23.59;45.76;99522.31;5094589;28;20256;-89
2023/10/02 07:05:34;;;;;;;10.70;5.50;;;;;;;23.68;45.34;99532.09;5077002;28;20188;-89
2023/10/02 07:08:17;;;;;;;10.83;4.63;;;;;;;23.78;45.06;99527.50;5095081;28;20180;-88
2023/10/02 07:10:43;;;;;;;10.00;4.63;;;;;;;23.97;44.92;99532.69;5094781;28;20156;-89
2023/10/02 07:13:22;;;;;;;9.93;4.27;;;;;;;24.05;44.09;99535.44;5076635;28;20626;-89
2023/10/02 07:15:59;;;;;;;12.20;5.40;;;;;;;24.23;43.33;99530.91;5094414;28;20152;-89
2023/10/02 07:18:36;;;;;;;9.10;4.67;;;;;;;24.37;43.65;99534.84;5094386;28;20251;-89
2023/10/02 07:21:07;;;;;;;8.63;4.00;;;;;;;24.67;43.47;99536.16;5076496;28;20164;-88
2023/10/02 07:23:37;;;;;;;7.33;3.90;;;;;;;24.88;41.85;99532.09;5094522;28;20156;-89
2023/10/02 07:26:04;;;;;;;8.90;4.13;;;;;;;25.20;41.72;99535.91;5094170;28;20208;-89
2023/10/02 07:28:29;;;;;;;7.80;4.10;;;;;;;25.54;41.40;99533.97;5094174;28;20177;-89
2023/10/02 07:30:56;;;;;;;7.80;4.00;;;;;;;25.74;40.78;99532.66;5076245;28;20191;-89
2023/10/02 07:33:22;;;;;;;7.33;4.07;;;;;;;26.12;39.63;99526.66;5094059;28;20173;-89
2023/10/02 07:35:54;;;;;;;9.93;4.23;;;;;;;26.20;39.70;99528.47;5093455;28;20557;-90
2023/10/02 07:38:21;;;;;;;8.13;4.10;;;;;;;26.37;39.02;99534.63;5094324;28;20583;-89
2023/10/02 07:40:48;;;;;;;6.70;4.10;;;;;;;26.52;38.99;99541.00;5093949;28;20168;-90
2023/10/02 07:43:18;;;;;;;7.20;4.17;;;;;;;26.73;39.14;99550.16;5093900;28;20527;-89
2023/10/02 07:46:01;;;;;;;11.65;4.78;;;;;;;26.57;38.61;99544.84;5094305;28;20698;-89
2023/10/02 07:48:36;;;;;;;9.93;3.53;;;;;;;26.76;38.40;99540.91;5093827;28;20167;-90
2023/10/02 07:51:06;;;;;;;8.40;3.77;;;;;;;26.58;38.72;99545.69;5093784;28;20190;-89
2023/10/02 07:53:40;;;;;;;8.93;4.40;;;;;;;26.57;38.09;99546.72;5075868;28;20180;-89
2023/10/02 07:56:07;;;;;;;9.95;3.80;;;;;;;26.47;38.18;99546.88;5094021;28;20152;-90
2023/10/02 07:58:35;;;;;;;7.77;3.57;;;;;;;26.58;38.19;99551.06;5093907;28;20176;-89
2023/10/02 08:01:06;;;;;;;7.87;4.03;;;;;;;26.68;37.20;99554.38;5093655;28;20176;-89
2023/10/02 08:03:34;;;;;;;10.60;4.07;;;;;;;26.61;38.14;99556.09;5094151;28;20239;-89
2023/10/02 08:06:20;;;;;;;12.23;3.90;;;;;;;26.95;38.12;99553.16;5075675;28;20200;-90
2023/10/02 08:11:50;;;;;;;6.15;3.28;;;;;;;27.40;36.71;99548.75;5093854;28;20175;-91
2023/10/02 08:14:38;;;;;;;6.90;3.63;;;;;;;27.76;35.78;99554.38;5093435;28;20186;-90
2023/10/02 08:17:17;;;;;;;9.02;3.30;;;;;;;27.90;35.71;99550.91;5093500;28;20167;-90
2023/10/02 08:19:56;;;;;;;8.95;3.90;;;;;;;28.14;35.19;99549.06;5075650;28;20172;-90
2023/10/02 08:22:23;;;;;;;8.52;3.55;;;;;;;28.37;35.11;99555.22;5075961;28;20191;-90
2023/10/02 08:24:50;;;;;;;11.95;3.88;;;;;;;28.48;34.51;99552.09;5075490;28;20549;-90
2023/10/02 08:27:15;;;;;;;9.02;3.83;;;;;;;28.74;35.26;99554.34;5093248;28;20257;-90
2023/10/02 08:29:41;;;;;;;9.55;4.03;;;;;;;28.98;34.04;99544.09;5093877;28;20176;-90
2023/10/02 08:32:07;;;;;;;6.13;3.78;;;;;;;29.14;34.18;99543.88;5093612;28;20176;-91
2023/10/02 08:34:32;;;;;;;7.72;4.00;;;;;;;29.13;34.01;99547.63;5093560;28;20557;-91
2023/10/02 08:37:07;;;;;;;9.68;4.30;;;;;;;29.19;33.98;99546.84;5093207;28;20200;-90
2023/10/02 08:39:37;;;;;;;8.32;4.60;;;;;;;29.33;33.75;99542.47;5093840;28;20178;-90
2023/10/02 08:42:09;;;;;;;11.30;4.00;;;;;;;29.44;33.03;99549.25;5093222;28;20230;-91
2023/10/02 08:44:40;;;;;;;7.88;3.70;;;;;;;29.59;33.71;99556.28;5076539;28;20176;-90
2023/10/02 08:47:11;;;;;;;13.07;4.28;;;;;;;29.73;33.53;99549.16;5094311;28;20196;-90
2023/10/02 08:49:40;;;;;;;9.05;3.97;;;;;;;29.86;33.41;99541.19;5097536;28;20163;-90
2023/10/02 08:52:10;;;;;;;9.13;4.07;;;;;;;29.99;32.71;99538.59;5097155;28;20180;-90
2023/10/02 08:54:37;;;;;;;7.68;4.28;;;;;;;30.05;33.05;99531.59;5097137;28;20241;-91
2023/10/02 08:57:06;;;;;;;6.07;3.85;;;;;;;30.15;31.81;99537.47;5097171;28;20184;-91
2023/10/02 08:59:38;;;;;;;9.63;4.28;;;;;;;30.21;32.50;99536.72;5097592;28;20168;-91
2023/10/02 09:02:15;;;;;;;9.98;4.00;;;;;;;30.20;32.84;99529.63;5079223;28;20165;-90
2023/10/02 09:04:53;;;;;;;6.88;3.60;;;;;;;30.23;32.65;99531.94;5097524;28;20161;-90
2023/10/02 09:10:26;;;;;;;9.85;3.97;;;;;;;30.36;32.16;99530.19;5096944;28;20218;-90
2023/10/02 09:13:20;;;;;;;6.68;3.50;;;;;;;30.26;32.35;99540.50;5097204;28;20247;-91
2023/10/02 09:15:53;;;;;;;7.13;3.63;;;;;;;30.05;31.77;99539.69;5096998;28;20153;-91
2023/10/02 09:18:58;;;;;;;9.35;4.05;;;;;;;30.13;32.77;99540.41;5096996;28;20167;-91
2023/10/02 09:21:21;;;;;;;5.68;3.40;;;;;;;30.28;32.22;99538.44;5096418;28;20212;-89
2023/10/02 09:24:00;;;;;;;8.63;3.90;;;;;;;30.36;31.56;99535.59;5096577;28;20249;-90
2023/10/02 09:26:32;;;;;;;8.73;3.97;;;;;;;30.62;31.19;99534.94;5096484;28;20218;-90
2023/10/02 09:29:05;;;;;;;7.60;3.88;;;;;;;30.15;31.28;99535.63;5097137;28;20160;-90
2023/10/02 09:31:34;;;;;;;7.78;4.15;;;;;;;30.13;32.37;99537.69;5096751;28;20168;-91
2023/10/02 09:34:10;;;;;;;8.65;4.53;;;;;;;30.20;32.10;99533.16;5078520;28;20325;-90
2023/10/02 09:36:47;;;;;;;7.57;3.78;;;;;;;30.47;31.22;99542.34;5096351;28;20170;-90
2023/10/02 09:39:32;;;;;;;5.38;3.10;;;;;;;30.65;31.67;99534.53;5096620;28;20171;-90
2023/10/02 09:42:06;;;;;;;10.60;4.45;;;;;;;30.93;30.96;99543.47;5096576;28;20156;-90
2023/10/02 09:44:42;;;;;;;7.80;4.15;;;;;;;31.02;31.03;99530.59;5078670;28;20536;-90
2023/10/02 09:47:08;;;;;;;7.25;4.70;;;;;;;30.82;31.36;99529.63;5096396;28;20188;-90
2023/10/02 09:49:42;;;;;;;12.43;4.50;;;;;;;30.73;31.71;99530.84;5096324;28;20229;-90
2023/10/02 09:52:16;;;;;;;10.88;4.30;;;;;;;30.68;31.36;99527.91;5096355;28;20168;-90
2023/10/02 09:55:14;;;;;;;9.27;4.88;;;;;;;30.52;32.44;99518.22;5096548;28;20221;-89
2023/10/02 09:57:50;;;;;;;7.18;4.38;;;;;;;30.41;32.17;99526.88;5095445;28;20180;-90
2023/10/02 10:00:37;;;;;;;14.18;5.55;;;;;;;30.41;32.39;99521.47;5096171;28;20160;-88
2023/10/02 10:03:23;;;;;;;8.35;5.13;;;;;;;30.21;33.74;99525.91;5096099;28;20163;-89
2023/10/02 10:06:06;;;;;;;8.30;5.00;;;;;;;30.25;33.32;99527.16;5096264;28;20204;-89
2023/10/02 10:12:17;;;;;;;10.00;4.45;;;;;;;30.47;32.38;99528.81;5095957;28;20232;-90
2023/10/02 10:14:39;;;;;;;6.72;4.22;;;;;;;30.47;32.35;99514.44;5095472;28;20695;-89
2023/10/02 10:17:15;;;;;;;7.10;4.78;;;;;;;30.42;31.83;99517.75;5078346;28;20697;-90
2023/10/02 10:20:10;;;;;;;9.68;4.93;;;;;;;30.26;32.14;99512.59;5095556;28;20528;-90
2023/10/02 10:22:38;;;;;;;11.60;4.80;;;;;;;30.15;32.20;99511.28;5095368;28;20531;-89
2023/10/02 10:25:29;;;;;;;8.35;4.25;;;;;;;30.07;32.04;99516.00;5095209;28;20169;-89
2023/10/02 10:27:54;;;;;;;8.10;4.85;;;;;;;29.83;32.39;99509.13;5077500;28;20214;-90
2023/10/02 10:30:33;;;;;;;8.90;5.30;;;;;;;29.76;32.54;99511.75;5095612;28;20176;-88
2023/10/02 10:33:13;;;;;;;7.82;5.10;;;;;;;29.72;32.65;99510.47;5095534;28;20160;-89
2023/10/02 10:35:48;;;;;;;7.57;4.00;;;;;;;29.80;32.14;99502.25;5095480;28;20156;-90
2023/10/02 10:38:21;;;;;;;5.88;3.13;;;;;;;30.08;30.81;99504.16;5077383;28;20503;-90
2023/10/02 10:40:55;;;;;;;7.03;2.80;;;;;;;30.28;30.76;99503.25;5095629;28;20183;-90
2023/10/02 10:43:26;;;;;;;9.73;3.20;;;;;;;30.31;30.62;99499.31;5095319;28;20524;-90
2023/10/02 10:45:55;;;;;;;8.27;3.60;;;;;;;30.30;30.61;99492.22;5094929;28;20545;-89
2023/10/02 10:48:22;;;;;;;6.72;3.38;;;;;;;30.26;30.08;99490.97;5095482;28;20274;-89
2023/10/02 10:51:06;;;;;;;8.88;2.95;;;;;;;30.40;30.30;99490.03;5077078;28;20188;-90
2023/10/02 10:53:32;;;;;;;7.10;2.75;;;;;;;30.21;30.34;99488.03;5095158;28;20166;-89
2023/10/02 10:56:17;;;;;;;9.98;3.47;;;;;;;30.04;30.82;99484.78;5076906;28;20180;-89
2023/10/02 10:58:47;;;;;;;6.47;3.13;;;;;;;30.20;30.83;99480.94;5076955;28;20171;-89
2023/10/02 11:01:16;;;;;;;6.18;2.65;;;;;;;30.42;30.85;99475.28;5077660;28;20583;-90
2023/10/02 11:03:48;;;;;;;7.18;3.35;;;;;;;30.70;30.03;99482.50;5076785;28;20203;-90
2023/10/02 11:06:16;;;;;;;6.13;2.80;;;;;;;30.93;29.72;99474.94;5095120;28;20196;-90
2023/10/02 11:08:44;;;;;;;9.95;2.67;;;;;;;31.11;29.33;99474.34;5076673;28;20199;-88
2023/10/02 11:11:19;;;;;;;6.75;3.00;;;;;;;31.07;28.64;99470.41;5094255;28;20225;-88
2023/10/02 11:13:50;;;;;;;8.27;3.30;;;;;;;31.38;29.09;99460.69;5076909;28;20510;-90
2023/10/02 11:16:31;;;;;;;17.30;3.08;;;;;;;31.58;28.01;99460.72;5094660;28;20247;-90
2023/10/02 11:22:14;;;;;;;11.15;3.13;;;;;;;31.17;27.88;99468.13;5094940;28;20302;-88
2023/10/02 11:25:00;;;;;;;6.78;2.63;;;;;;;30.74;27.68;99462.94;5094525;28;20160;-89
2023/10/02 11:27:29;;;;;;;5.03;2.72;;;;;;;30.55;28.63;99465.59;5066062;28;20228;-89
2023/10/02 11:30:01;;;;;;;9.27;2.78;;;;;;;30.72;28.14;99456.06;5094119;28;20209;-89
2023/10/02 11:33:08;;;;;;;5.80;3.05;;;;;;;30.66;28.23;99449.59;5076209;28;20161;-89
2023/10/02 11:35:43;;;;;;;6.22;3.20;;;;;;;30.92;28.08;99448.91;5092239;28;20180;-89
2023/10/02 11:38:09;;;;;;;7.65;3.30;;;;;;;30.76;27.83;99452.78;5094292;28;20160;-89
2023/10/02 11:40:35;;;;;;;7.88;2.80;;;;;;;30.57;28.93;99461.63;5094222;28;20172;-87
2023/10/02 11:43:01;;;;;;;10.90;3.13;;;;;;;30.71;28.53;99460.69;5093850;28;20544;-86
2023/10/02 11:45:28;;;;;;;7.95;3.03;;;;;;;30.79;28.92;99460.47;5093773;28;20259;-87
2023/10/02 11:47:53;;;;;;;6.50;2.67;;;;;;;30.95;28.69;99457.44;5093963;28;20233;-88
2023/10/02 11:50:19;;;;;;;6.88;2.75;;;;;;;30.98;28.93;99451.63;5093794;28;20275;-87
2023/10/02 11:52:44;;;;;;;5.47;2.45;;;;;;;30.83;28.71;99456.34;5094275;28;20395;-87
2023/10/02 11:55:11;;;;;;;6.13;2.42;;;;;;;30.91;28.53;99453.50;5093657;28;20173;-87
2023/10/02 11:57:37;;;;;;;7.30;2.95;;;;;;;31.13;28.39;99459.59;5075803;28;20207;-88
2023/10/02 12:00:08;;;;;;;7.45;2.85;;;;;;;31.05;28.15;99456.25;5093622;28;20180;-87
2023/10/02 12:02:34;;;;;;;7.50;2.83;;;;;;;30.91;28.27;99460.78;5093868;28;20164;-86
2023/10/02 12:05:00;;;;;;;8.85;2.88;;;;;;;30.90;28.43;99457.19;5093563;28;20211;-86
2023/10/02 12:07:25;;;;;;;5.00;2.25;;;;;;;30.89;28.80;99458.25;5093396;28;20227;-87
2023/10/02 12:09:53;;;;;;;5.32;2.35;;;;;;;30.92;28.78;99449.72;5093511;28;20251;-86
2023/10/02 12:12:19;;;;;;;4.65;2.35;;;;;;;30.57;28.66;99456.22;5075695;28;20176;-88
2023/10/02 12:14:45;;;;;;;6.78;2.92;;;;;;;30.46;29.14;99454.09;5075632;28;20191;-86
2023/10/02 12:17:14;;;;;;;7.65;2.42;;;;;;;30.76;29.21;99449.22;5093443;28;20252;-86
2023/10/02 12:19:41;;;;;;;7.15;2.42;;;;;;;30.62;28.64;99459.16;5093359;28;20200;-86
2023/10/02 12:22:07;;;;;;;9.55;3.25;;;;;;;30.37;29.00;99453.41;5076203;28;20180;-87
2023/10/02 12:24:34;;;;;;;8.48;2.97;;;;;;;29.78;29.18;99461.09;5093330;28;20194;-87
2023/10/02 12:27:00;;;;;;;5.95;2.67;;;;;;;30.16;29.64;99455.34;5075466;28;20666;-87
2023/10/02 12:29:25;;;;;;;8.13;2.92;;;;;;;30.34;29.20;99448.38;5093212;28;20183;-86
2023/10/02 12:31:52;;;;;;;5.18;2.67;;;;;;;29.89;29.46;99457.00;5093219;28;20176;-86
2023/10/02 12:34:18;;;;;;;6.53;3.03;;;;;;;30.07;29.82;99446.53;5093221;28;20177;-86